createdAt,value
2022-07-26T00:01:56.821Z,100384.75
2022-07-26T00:04:23.902Z,100384.75
2022-07-26T00:06:50.843Z,100386.41
2022-07-26T00:09:17.787Z,100380.75
2022-07-26T00:11:44.836Z,100369.53
2022-07-26T00:14:11.909Z,100377.94
2022-07-26T00:16:39.325Z,100383.53
2022-07-26T00:19:09.940Z,100377.13
2022-07-26T00:21:40.589Z,100373.88
2022-07-26T00:24:08.961Z,100383.50
2022-07-26T00:26:36.439Z,100364.28
2022-07-26T00:29:06.204Z,100372.25
2022-07-26T00:31:33.566Z,100375.47
2022-07-26T00:34:00.697Z,100369.84
2022-07-26T00:36:28.966Z,100366.63
2022-07-26T00:38:55.984Z,100371.44
2022-07-26T00:41:22.884Z,100374.19
2022-07-26T00:43:57.548Z,100371.00
2022-07-26T00:46:25.082Z,100365.00
2022-07-26T00:48:52.169Z,100362.16
2022-07-26T00:51:20.950Z,100353.75
2022-07-26T00:53:48.574Z,100357.78
2022-07-26T00:56:16.408Z,100361.38
2022-07-26T00:58:44.408Z,100358.56
2022-07-26T01:01:11.756Z,100341.75
2022-07-26T01:03:39.586Z,100354.56
2022-07-26T01:06:07.010Z,100357.75
2022-07-26T01:08:34.004Z,100359.34
2022-07-26T01:11:01.059Z,100353.75
2022-07-26T01:13:31.868Z,100353.31
2022-07-26T01:16:01.756Z,100349.75
2022-07-26T01:18:28.758Z,100346.53
2022-07-26T01:20:57.875Z,100344.91
2022-07-26T01:23:24.803Z,100339.72
2022-07-26T01:25:51.727Z,100338.09
2022-07-26T01:28:20.127Z,100344.44
2022-07-26T01:30:49.150Z,100342.88
2022-07-26T01:33:16.285Z,100335.66
2022-07-26T01:35:43.267Z,100330.84
2022-07-26T01:38:10.253Z,100331.69
2022-07-26T01:40:37.157Z,100333.66
2022-07-26T01:43:04.137Z,100335.63
2022-07-26T01:45:31.842Z,100337.63
2022-07-26T01:47:58.790Z,100338.00
2022-07-26T01:50:25.764Z,100344.41
2022-07-26T01:52:52.843Z,100335.97
2022-07-26T01:55:19.913Z,100334.75
2022-07-26T01:57:46.841Z,100333.16
2022-07-26T02:00:14.342Z,100334.34
2022-07-26T02:02:41.403Z,100340.31
2022-07-26T02:05:09.474Z,100336.63
2022-07-26T02:07:44.470Z,100337.41
2022-07-26T02:10:13.512Z,100340.16
2022-07-26T02:12:42.279Z,100346.56
2022-07-26T02:15:12.532Z,100339.28
2022-07-26T02:17:39.465Z,100337.72
2022-07-26T02:20:07.412Z,100340.47
2022-07-26T02:22:35.060Z,100331.31
2022-07-26T02:25:05.302Z,100338.53
2022-07-26T02:27:33.029Z,100324.91
2022-07-26T02:30:00.166Z,100318.88
2022-07-26T02:32:27.110Z,100332.13
2022-07-26T02:34:54.050Z,100315.69
2022-07-26T02:37:20.974Z,100327.69
2022-07-26T02:39:47.895Z,100325.72
2022-07-26T02:42:14.976Z,100319.69
2022-07-26T02:44:41.907Z,100316.56
2022-07-26T02:47:08.819Z,100328.56
2022-07-26T02:49:39.623Z,100325.38
2022-07-26T02:52:06.702Z,100322.94
2022-07-26T03:12:56.753Z,100325.88
2022-07-26T03:15:23.728Z,100330.00
2022-07-26T03:17:50.810Z,100328.50
2022-07-26T03:20:17.790Z,100327.75
2022-07-26T03:22:44.729Z,100329.00
2022-07-26T03:25:11.757Z,100326.56
2022-07-26T03:27:38.707Z,100329.03
2022-07-26T03:30:06.882Z,100333.56
2022-07-26T03:32:33.871Z,100333.19
2022-07-26T03:35:00.783Z,100338.41
2022-07-26T03:37:27.762Z,100330.41
2022-07-26T03:40:13.741Z,100339.28
2022-07-26T03:42:40.623Z,100334.88
2022-07-26T03:45:09.485Z,100340.13
2022-07-26T03:47:37.407Z,100336.59
2022-07-26T03:50:08.363Z,100335.03
2022-07-26T03:52:35.622Z,100334.34
2022-07-26T03:55:22.560Z,100330.75
2022-07-26T03:57:49.581Z,100336.44
2022-07-26T04:00:16.584Z,100336.47
2022-07-26T04:02:43.660Z,100347.31
2022-07-26T04:05:11.431Z,100338.44
2022-07-26T04:07:52.607Z,100338.44
2022-07-26T04:10:22.390Z,100338.31
2022-07-26T04:12:52.099Z,100328.59
2022-07-26T04:15:21.105Z,100329.97
2022-07-26T04:17:48.591Z,100331.28
2022-07-26T04:20:16.086Z,100330.22
2022-07-26T04:22:43.102Z,100324.66
2022-07-26T04:25:10.367Z,100320.22
2022-07-26T04:27:37.781Z,100320.41
2022-07-26T04:30:10.960Z,100318.06
2022-07-26T04:32:41.621Z,100322.22
2022-07-26T04:35:09.091Z,100318.56
2022-07-26T04:37:41.422Z,100332.66
2022-07-26T04:40:09.212Z,100326.41
2022-07-26T04:42:36.855Z,100330.44
2022-07-26T04:45:08.334Z,100336.16
2022-07-26T04:47:36.592Z,100324.63
2022-07-26T04:50:04.590Z,100327.06
2022-07-26T04:52:31.542Z,100330.22
2022-07-26T04:54:59.654Z,100332.19
2022-07-26T04:57:26.635Z,100339.50
2022-07-26T05:00:10.123Z,100326.22
2022-07-26T05:02:41.196Z,100326.31
2022-07-26T05:05:09.193Z,100330.19
2022-07-26T05:07:47.844Z,100331.97
2022-07-26T05:10:17.602Z,100328.22
2022-07-26T05:12:46.799Z,100324.00
2022-07-26T05:15:14.746Z,100327.03
2022-07-26T05:17:43.478Z,100324.53
2022-07-26T05:20:14.937Z,100330.22
2022-07-26T05:22:42.560Z,100324.81
2022-07-26T05:25:09.950Z,100330.72
2022-07-26T05:27:37.284Z,100326.41
2022-07-26T05:30:04.556Z,100324.47
2022-07-26T05:32:31.455Z,100325.06
2022-07-26T05:34:58.440Z,100324.41
2022-07-26T05:37:25.550Z,100322.00
2022-07-26T05:39:52.437Z,100322.81
2022-07-26T05:42:19.379Z,100325.94
2022-07-26T05:44:46.243Z,100335.28
2022-07-26T05:47:13.374Z,100327.97
2022-07-26T05:49:40.881Z,100334.59
2022-07-26T05:52:11.165Z,100325.00
2022-07-26T05:54:38.191Z,100332.41
2022-07-26T05:57:05.159Z,100325.25
2022-07-26T05:59:32.195Z,100327.00
2022-07-26T06:01:59.504Z,100320.94
2022-07-26T06:04:27.310Z,100326.66
2022-07-26T06:06:55.235Z,100323.44
2022-07-26T06:09:24.393Z,100322.75
2022-07-26T06:11:51.731Z,100321.19
2022-07-26T06:14:19.917Z,100327.34
2022-07-26T06:16:48.238Z,100318.38
2022-07-26T06:19:15.645Z,100311.44
2022-07-26T06:21:42.920Z,100319.38
2022-07-26T06:24:10.617Z,100312.88
2022-07-26T06:26:37.914Z,100305.53
2022-07-26T06:29:04.886Z,100307.81
2022-07-26T06:31:31.995Z,100303.63
2022-07-26T06:33:59.112Z,100301.22
2022-07-26T06:36:30.244Z,100307.06
2022-07-26T06:38:57.946Z,100315.03
2022-07-26T06:41:25.027Z,100312.06
2022-07-26T06:43:52.020Z,100310.53
2022-07-26T06:46:21.207Z,100307.13
2022-07-26T06:48:52.635Z,100301.72
2022-07-26T06:51:20.257Z,100306.19
2022-07-26T06:53:47.208Z,100296.63
2022-07-26T06:56:15.167Z,100309.75
2022-07-26T06:58:42.854Z,100317.34
2022-07-26T07:01:09.986Z,100313.91
2022-07-26T07:03:37.599Z,100312.22
2022-07-26T07:06:04.779Z,100308.59
2022-07-26T07:08:31.871Z,100310.56
2022-07-26T07:10:59.043Z,100311.34
2022-07-26T07:13:26.127Z,100310.38
2022-07-26T07:15:53.742Z,100314.16
2022-07-26T07:18:21.679Z,100313.91
2022-07-26T07:20:48.754Z,100304.84
2022-07-26T07:23:15.774Z,100305.19
2022-07-26T07:25:44.551Z,100310.84
2022-07-26T07:28:11.967Z,100295.59
2022-07-26T07:30:38.910Z,100310.88
2022-07-26T07:33:09.566Z,100305.56
2022-07-26T07:35:50.512Z,100311.75
2022-07-26T07:38:17.661Z,100310.81
2022-07-26T07:40:44.686Z,100308.03
2022-07-26T07:43:11.740Z,100312.91
2022-07-26T07:45:38.759Z,100298.03
2022-07-26T07:48:06.287Z,100317.81
2022-07-26T07:50:33.429Z,100319.41
2022-07-26T07:53:01.970Z,100307.47
2022-07-26T07:55:41.288Z,100311.00
2022-07-26T07:58:11.346Z,100316.25
2022-07-26T08:00:38.889Z,100316.44
2022-07-26T08:03:05.991Z,100306.09
2022-07-26T08:05:32.999Z,100307.84
2022-07-26T08:08:00.087Z,100306.47
2022-07-26T08:10:27.536Z,100309.25
2022-07-26T08:12:54.439Z,100322.16
2022-07-26T08:15:23.542Z,100313.66
2022-07-26T08:17:54.636Z,100307.69
2022-07-26T08:20:22.940Z,100306.44
2022-07-26T08:22:52.495Z,100315.78
2022-07-26T08:25:19.989Z,100306.84
2022-07-26T08:28:02.636Z,100316.06
2022-07-26T08:30:31.192Z,100308.91
2022-07-26T08:32:58.352Z,100323.41
2022-07-26T08:35:25.388Z,100312.47
2022-07-26T08:37:52.463Z,100318.44
2022-07-26T08:40:19.450Z,100321.47
2022-07-26T08:42:52.633Z,100321.50
2022-07-26T08:45:28.359Z,100309.03
2022-07-26T08:48:16.612Z,100309.56
2022-07-26T08:50:43.077Z,100310.50
2022-07-26T08:53:12.161Z,100306.50
2022-07-26T08:58:26.467Z,100301.88
2022-07-26T09:01:14.134Z,100308.91
2022-07-26T09:03:42.759Z,100302.13
2022-07-26T09:06:16.625Z,100297.59
2022-07-26T09:08:44.703Z,100292.66
2022-07-26T09:11:23.692Z,100299.31
2022-07-26T09:13:59.326Z,100303.59
2022-07-26T09:16:27.289Z,100302.09
2022-07-26T09:18:55.152Z,100307.91
2022-07-26T09:21:28.266Z,100299.97
2022-07-26T09:23:55.691Z,100302.97
2022-07-26T09:26:26.125Z,100307.19
2022-07-26T09:29:08.906Z,100309.81
2022-07-26T09:31:37.605Z,100311.84
2022-07-26T09:34:06.146Z,100301.47
2022-07-26T09:36:33.820Z,100300.13
2022-07-26T09:39:03.310Z,100301.59
2022-07-26T09:41:36.218Z,100303.72
2022-07-26T09:44:07.084Z,100293.53
2022-07-26T09:46:35.837Z,100287.34
2022-07-26T09:49:19.861Z,100303.25
2022-07-26T09:51:49.400Z,100296.63
2022-07-26T09:54:33.713Z,100280.34
2022-07-26T09:57:00.900Z,100288.72
2022-07-26T09:59:29.331Z,100295.16
2022-07-26T10:01:57.939Z,100291.31
2022-07-26T10:04:25.515Z,100300.47
2022-07-26T10:06:52.923Z,100294.41
2022-07-26T10:09:22.997Z,100297.19
2022-07-26T10:12:03.472Z,100294.72
2022-07-26T10:14:33.249Z,100282.56
2022-07-26T10:17:01.950Z,100282.34
2022-07-26T10:19:47.534Z,100276.22
2022-07-26T10:22:32.170Z,100269.16
2022-07-26T10:25:19.226Z,100276.25
2022-07-26T10:27:51.436Z,100277.91
2022-07-26T10:30:18.410Z,100277.47
2022-07-26T10:32:51.457Z,100268.84
2022-07-26T10:35:30.949Z,100262.72
2022-07-26T10:38:06.796Z,100267.97
2022-07-26T10:40:34.603Z,100267.59
2022-07-26T10:46:31.033Z,100249.09
2022-07-26T10:49:07.621Z,100250.22
2022-07-26T10:51:39.760Z,100257.47
2022-07-26T10:54:12.757Z,100259.91
2022-07-26T10:56:40.764Z,100252.84
2022-07-26T10:59:07.902Z,100254.19
2022-07-26T11:01:36.172Z,100244.94
2022-07-26T11:04:03.726Z,100242.88
2022-07-26T11:06:30.651Z,100236.81
2022-07-26T11:08:58.000Z,100237.28
2022-07-26T11:11:32.781Z,100242.56
2022-07-26T11:14:11.714Z,100229.19
2022-07-26T11:16:53.044Z,100238.69
2022-07-26T11:19:23.452Z,100225.09
2022-07-26T11:22:01.479Z,100226.56
2022-07-26T11:24:29.262Z,100224.66
2022-07-26T11:26:57.191Z,100232.69
2022-07-26T11:29:40.687Z,100228.53
2022-07-26T11:32:18.726Z,100223.84
2022-07-26T11:34:46.950Z,100212.19
2022-07-26T11:37:14.476Z,100231.69
2022-07-26T11:39:41.386Z,100216.38
2022-07-26T11:42:10.080Z,100223.72
2022-07-26T11:44:37.239Z,100202.31
2022-07-26T11:47:20.305Z,100218.88
2022-07-26T11:50:00.287Z,100202.06
2022-07-26T11:52:35.632Z,100208.25
2022-07-26T11:55:02.595Z,100220.38
2022-07-26T11:57:31.515Z,100199.41
2022-07-26T12:00:00.382Z,100213.13
2022-07-26T12:02:28.594Z,100216.75
2022-07-26T12:05:16.157Z,100211.34
2022-07-26T12:07:57.565Z,100207.63
2022-07-26T12:10:24.935Z,100203.88
2022-07-26T12:13:16.214Z,100203.66
2022-07-26T12:15:53.848Z,100199.59
2022-07-26T12:18:32.860Z,100191.09
2022-07-26T12:21:05.048Z,100189.59
2022-07-26T12:23:46.350Z,100193.81
2022-07-26T12:26:27.019Z,100184.44
2022-07-26T12:28:54.937Z,100180.38
2022-07-26T12:31:28.221Z,100185.25
2022-07-26T12:33:55.636Z,100173.38
2022-07-26T12:36:27.771Z,100176.03
2022-07-26T12:38:57.979Z,100174.16
2022-07-26T12:41:39.490Z,100176.03
2022-07-26T12:44:11.561Z,100172.22
2022-07-26T12:46:39.349Z,100168.66
2022-07-26T12:49:06.434Z,100169.03
2022-07-26T12:51:34.171Z,100160.41
2022-07-26T12:54:01.100Z,100161.06
2022-07-26T12:56:28.015Z,100156.94
2022-07-26T12:59:01.049Z,100159.06
2022-07-26T13:01:29.644Z,100159.41
2022-07-26T13:03:56.702Z,100176.63
2022-07-26T13:06:23.703Z,100166.41
2022-07-26T13:08:50.715Z,100174.84
2022-07-26T13:11:17.716Z,100165.41
2022-07-26T13:13:44.740Z,100162.50
2022-07-26T13:16:12.426Z,100159.47
2022-07-26T13:18:39.686Z,100158.75
2022-07-26T13:21:06.788Z,100156.44
2022-07-26T13:23:35.654Z,100160.63
2022-07-26T13:26:04.261Z,100156.38
2022-07-26T13:28:34.855Z,100156.13
2022-07-26T13:31:02.344Z,100153.38
2022-07-26T13:33:29.334Z,100168.78
2022-07-26T13:35:56.748Z,100155.94
2022-07-26T13:38:23.766Z,100149.47
2022-07-26T13:40:50.736Z,100158.69
2022-07-26T13:43:17.650Z,100152.81
2022-07-26T13:45:44.552Z,100146.03
2022-07-26T13:48:11.502Z,100152.41
2022-07-26T13:50:38.446Z,100146.03
2022-07-26T13:53:05.347Z,100151.44
2022-07-26T13:55:32.390Z,100144.34
2022-07-26T13:57:59.266Z,100150.56
2022-07-26T14:00:30.051Z,100142.94
2022-07-26T14:02:58.214Z,100149.06
2022-07-26T14:05:25.451Z,100139.47
2022-07-26T14:07:53.176Z,100144.34
2022-07-26T14:10:21.973Z,100152.13
2022-07-26T14:12:49.280Z,100149.50
2022-07-26T14:15:21.432Z,100139.06
2022-07-26T14:17:49.564Z,100143.13
2022-07-26T14:20:17.399Z,100142.78
2022-07-26T14:22:44.826Z,100145.06
2022-07-26T14:25:12.220Z,100134.91
2022-07-26T14:27:39.404Z,100128.88
2022-07-26T14:30:06.897Z,100133.31
2022-07-26T14:32:34.029Z,100132.31
2022-07-26T14:35:01.047Z,100128.16
2022-07-26T14:37:44.997Z,100129.25
2022-07-26T14:40:17.155Z,100129.06
2022-07-26T14:42:46.099Z,100125.53
2022-07-26T14:45:13.704Z,100133.84
2022-07-26T14:47:41.091Z,100123.97
2022-07-26T14:50:10.055Z,100127.25
2022-07-26T14:52:41.751Z,100125.81
2022-07-26T14:55:09.358Z,100125.91
2022-07-26T14:57:39.500Z,100117.50
2022-07-26T15:15:02.026Z,100114.09
2022-07-26T15:17:29.011Z,100118.09
2022-07-26T15:19:55.996Z,100112.63
2022-07-26T15:22:22.920Z,100115.19
2022-07-26T15:24:49.991Z,100105.28
2022-07-26T15:27:16.928Z,100108.81
2022-07-26T15:29:44.706Z,100110.34
2022-07-26T15:32:11.710Z,100106.28
2022-07-26T15:34:38.764Z,100108.31
2022-07-26T15:37:05.767Z,100104.41
2022-07-26T15:39:32.827Z,100105.19
2022-07-26T15:42:05.442Z,100109.53
2022-07-26T15:44:34.766Z,100109.44
2022-07-26T15:47:01.871Z,100103.09
2022-07-26T15:49:30.872Z,100106.91
2022-07-26T15:51:58.014Z,100107.94
2022-07-26T15:54:25.085Z,100102.84
2022-07-26T15:56:51.998Z,100104.78
2022-07-26T15:59:18.904Z,100108.59
2022-07-26T16:01:45.776Z,100098.50
2022-07-26T16:04:13.299Z,100107.41
2022-07-26T16:06:40.673Z,100107.16
2022-07-26T16:09:22.921Z,100111.56
2022-07-26T16:11:50.330Z,100115.59
2022-07-26T16:14:18.030Z,100104.22
2022-07-26T16:16:45.584Z,100113.84
2022-07-26T16:19:13.256Z,100119.59
2022-07-26T16:21:41.010Z,100113.66
2022-07-26T16:24:08.354Z,100117.72
2022-07-26T16:26:36.136Z,100113.47
2022-07-26T16:29:04.139Z,100111.41
2022-07-26T16:31:31.456Z,100108.97
2022-07-26T16:33:58.420Z,100101.00
2022-07-26T16:36:25.842Z,100108.91
2022-07-26T16:38:52.756Z,100108.94
2022-07-26T16:41:19.872Z,100115.28
2022-07-26T16:43:46.997Z,100110.91
2022-07-26T16:46:14.227Z,100110.00
2022-07-26T16:48:41.228Z,100121.88
2022-07-26T16:51:08.353Z,100119.78
2022-07-26T16:53:35.463Z,100126.56
2022-07-26T16:56:02.451Z,100117.38
2022-07-26T16:58:29.461Z,100118.97
2022-07-26T17:00:56.430Z,100119.47
2022-07-26T17:03:23.917Z,100114.63
2022-07-26T17:05:51.326Z,100119.91
2022-07-26T17:08:18.397Z,100118.25
2022-07-26T17:10:45.586Z,100120.44
2022-07-26T17:13:12.707Z,100123.81
2022-07-26T17:15:39.613Z,100122.69
2022-07-26T17:18:06.528Z,100127.19
2022-07-26T17:20:33.496Z,100124.91
2022-07-26T17:23:00.514Z,100127.34
2022-07-26T17:25:27.627Z,100133.59
2022-07-26T17:27:54.635Z,100123.94
2022-07-26T17:30:21.617Z,100120.31
2022-07-26T17:32:48.643Z,100132.78
2022-07-26T17:35:15.670Z,100136.41
2022-07-26T17:37:42.651Z,100115.59
2022-07-26T17:40:10.398Z,100126.50
2022-07-26T17:42:37.926Z,100122.22
2022-07-26T17:45:06.668Z,100128.53
2022-07-26T17:47:33.694Z,100122.41
2022-07-26T17:52:52.693Z,100117.38
2022-07-26T17:55:20.209Z,100120.50
2022-07-26T17:57:49.575Z,100118.16
2022-07-26T18:00:21.975Z,100113.81
2022-07-26T18:02:49.308Z,100117.44
2022-07-26T18:05:16.851Z,100118.66
2022-07-26T18:07:43.883Z,100119.59
2022-07-26T18:10:11.612Z,100120.38
2022-07-26T18:12:38.808Z,100125.66
2022-07-26T18:15:07.633Z,100124.63
2022-07-26T18:17:34.866Z,100132.69
2022-07-26T18:20:01.852Z,100134.56
2022-07-26T18:22:28.812Z,100140.56
2022-07-26T18:24:55.770Z,100142.56
2022-07-26T18:27:23.623Z,100140.63
2022-07-26T18:29:50.554Z,100135.66
2022-07-26T18:32:19.332Z,100147.75
2022-07-26T18:34:52.088Z,100144.91
2022-07-26T18:37:20.629Z,100150.09
2022-07-26T18:39:53.973Z,100144.78
2022-07-26T18:42:24.121Z,100140.81
2022-07-26T18:44:51.142Z,100146.81
2022-07-26T18:47:18.254Z,100148.28
2022-07-26T18:49:45.236Z,100143.97
2022-07-26T18:52:12.420Z,100150.81
2022-07-26T18:54:40.506Z,100154.50
2022-07-26T18:57:07.509Z,100140.00
2022-07-26T18:59:34.566Z,100145.72
2022-07-26T19:02:01.657Z,100148.91
2022-07-26T19:04:28.753Z,100152.78
2022-07-26T19:06:56.062Z,100150.81
2022-07-26T19:09:23.185Z,100151.72
2022-07-26T19:11:50.239Z,100148.00
2022-07-26T19:14:17.580Z,100151.38
2022-07-26T19:16:44.612Z,100152.53
2022-07-26T19:19:11.970Z,100149.88
2022-07-26T19:21:40.949Z,100153.19
2022-07-26T19:24:07.933Z,100152.31
2022-07-26T19:26:35.901Z,100146.31
2022-07-26T19:29:02.841Z,100143.06
2022-07-26T19:31:29.892Z,100149.56
2022-07-26T19:33:56.852Z,100144.38
2022-07-26T19:36:26.469Z,100144.44
2022-07-26T19:38:56.728Z,100144.00
2022-07-26T19:41:23.983Z,100135.59
2022-07-26T19:43:50.966Z,100146.84
2022-07-26T19:46:18.003Z,100149.66
2022-07-26T19:48:45.311Z,100140.75
2022-07-26T19:51:12.427Z,100147.47
2022-07-26T19:53:39.519Z,100147.06
2022-07-26T19:56:07.957Z,100146.81
2022-07-26T19:58:35.103Z,100148.41
2022-07-26T20:01:02.418Z,100150.38
2022-07-26T20:03:29.431Z,100144.13
2022-07-26T20:05:57.843Z,100142.63
2022-07-26T20:08:25.312Z,100144.28
2022-07-26T20:10:52.598Z,100155.97
2022-07-26T20:13:19.621Z,100161.25
2022-07-26T20:15:49.322Z,100156.41
2022-07-26T20:18:19.560Z,100146.41
2022-07-26T20:20:46.591Z,100158.09
2022-07-26T20:23:13.636Z,100156.88
2022-07-26T20:25:40.728Z,100152.97
2022-07-26T20:28:07.718Z,100147.34
2022-07-26T20:30:34.794Z,100151.41
2022-07-26T20:33:01.854Z,100147.84
2022-07-26T20:35:29.227Z,100145.84
2022-07-26T20:37:56.173Z,100155.97
2022-07-26T20:40:23.466Z,100148.34
2022-07-26T20:42:51.691Z,100152.22
2022-07-26T20:45:18.631Z,100146.19
2022-07-26T20:47:45.479Z,100155.78
2022-07-26T20:50:12.703Z,100150.44
2022-07-26T20:52:39.979Z,100158.84
2022-07-26T20:55:07.634Z,100152.38
2022-07-26T20:57:35.480Z,100152.97
2022-07-26T21:00:05.996Z,100152.97
2022-07-26T21:02:33.011Z,100162.94
2022-07-26T21:04:59.886Z,100153.66
2022-07-26T21:07:55.983Z,100159.22
2022-07-26T21:10:14.071Z,100156.41
2022-07-26T21:12:41.536Z,100157.63
2022-07-26T21:15:08.828Z,100167.69
2022-07-26T21:17:35.835Z,100156.19
2022-07-26T21:20:03.951Z,100150.13
2022-07-26T21:22:30.937Z,100158.84
2022-07-26T21:24:57.841Z,100150.16
2022-07-26T21:27:24.815Z,100155.38
2022-07-26T21:29:51.786Z,100157.88
2022-07-26T21:32:18.655Z,100156.31
2022-07-26T21:34:45.571Z,100152.72
2022-07-26T21:37:12.534Z,100156.88
2022-07-26T21:39:39.337Z,100151.22
2022-07-26T21:42:06.182Z,100150.63
2022-07-26T21:44:33.076Z,100144.97
2022-07-26T21:47:00.034Z,100144.63
2022-07-26T21:49:26.997Z,100145.44
2022-07-26T21:51:53.996Z,100151.94
2022-07-26T21:54:20.992Z,100143.13
2022-07-26T21:56:47.847Z,100147.94
2022-07-26T21:59:15.226Z,100145.91
2022-07-26T22:01:42.841Z,100147.66
2022-07-26T22:04:10.337Z,100150.78
2022-07-26T22:06:37.693Z,100144.78
2022-07-26T22:09:05.335Z,100142.72
2022-07-26T22:11:32.377Z,100145.53
2022-07-26T22:13:59.242Z,100138.00
2022-07-26T22:16:26.249Z,100143.31
2022-07-26T22:18:53.083Z,100153.38
2022-07-26T22:21:19.938Z,100149.00
2022-07-26T22:23:46.973Z,100143.00
2022-07-26T22:26:14.271Z,100141.03
2022-07-26T22:28:41.222Z,100135.31
2022-07-26T22:31:08.119Z,100144.63
2022-07-26T22:33:35.066Z,100134.53
2022-07-26T22:36:01.920Z,100131.00
2022-07-26T22:38:30.454Z,100131.84
2022-07-26T22:40:57.394Z,100133.81
2022-07-26T22:43:24.352Z,100135.00
2022-07-26T22:45:51.519Z,100127.72
2022-07-26T22:48:18.510Z,100129.72
2022-07-26T22:50:45.406Z,100128.59
2022-07-26T22:53:12.288Z,100130.22
2022-07-26T22:55:39.395Z,100128.66
2022-07-26T22:58:06.260Z,100129.88
2022-07-26T23:00:33.237Z,100121.06
2022-07-26T23:08:43.903Z,100127.88
2022-07-26T23:11:00.712Z,100124.97
2022-07-26T23:13:27.719Z,100118.50
2022-07-26T23:16:00.320Z,100122.84
2022-07-26T23:18:28.342Z,100116.00
2022-07-26T23:20:55.179Z,100129.72
2022-07-26T23:23:22.173Z,100130.53
2022-07-26T23:25:51.043Z,100135.31
2022-07-26T23:28:24.788Z,100131.28
2022-07-26T23:31:06.721Z,100129.63
2022-07-26T23:33:52.366Z,100136.13
2022-07-26T23:36:24.515Z,100137.00
2022-07-26T23:38:51.899Z,100131.78
2022-07-26T23:41:19.427Z,100137.22
2022-07-26T23:43:46.438Z,100126.78
2022-07-26T23:46:13.436Z,100126.75
2022-07-26T23:48:40.530Z,100124.34
2022-07-26T23:51:07.811Z,100125.63
2022-07-26T23:53:34.950Z,100138.00
2022-07-26T23:56:01.995Z,100135.25
2022-07-26T23:58:28.968Z,100132.88
